Terminal Aerodrome Forecast
Issued by NWS

Current Version | Previous Version | Graphics & Text | Print | Product List | Glossary On
Versions: 1 2 3 4 5 6 7 8 9 10 11 12 13 14 15 16 17 18 19 20 21 22 23 24 25 26 27 28 29 30 31
000
FTUS41 KILN 012338
TAFLUK
TAF
KLUK 012338Z 0200/0224 19005KT P6SM VCTS BKN040CB
     FM020200 23006KT P6SM SCT050 SCT100
     FM020600 24008KT P6SM VCSH BKN050
     FM020900 28008KT P6SM SCT028 SCT045
     FM021500 26008KT P6SM BKN028=

USA.gov is the U.S. government's official web portal to all federal, state and local government web resources and services.